<?xml version="1.0" encoding="UTF-8" standalone="no" ?>
<gpx xmlns="http://www.topografix.com/GPX/1/1" xmlns:xsi="http://www.w3.org/2001/XMLSchema-instance" xsi:schemaLocation="http://www.topografix.com/GPX/1/1 http://www.topografix.com/GPX/1/1/gpx.xsd" version="1.1" creator="VisuGPX - https://www.visugpx.com">
  <metadata>
    <name>R 040 Le Plumat</name>
  </metadata>
  <trk>
    <name><![CDATA[R 40_Le Plumat]]></name>
    <trkseg>
      <trkpt lat="46.42178" lon="-1.60299">
        <ele>-1</ele>
        <time>2017-12-05T13:16:15Z</time>
      </trkpt>
      <trkpt lat="46.42178" lon="-1.60299">
        <ele>65.8</ele>
        <time>2017-12-05T13:16:18Z</time>
      </trkpt>
      <trkpt lat="46.42162" lon="-1.60335">
        <ele>58.3</ele>
        <time>2017-12-05T13:20:36Z</time>
      </trkpt>
      <trkpt lat="46.42155" lon="-1.60351">
        <ele>61.8</ele>
        <time>2017-12-05T13:20:49Z</time>
      </trkpt>
      <trkpt lat="46.4215" lon="-1.60364">
        <ele>63.1</ele>
        <time>2017-12-05T13:20:59Z</time>
      </trkpt>
      <trkpt lat="46.42144" lon="-1.60379">
        <ele>63.8</ele>
        <time>2017-12-05T13:21:10Z</time>
      </trkpt>
      <trkpt lat="46.42142" lon="-1.60392">
        <ele>57.9</ele>
        <time>2017-12-05T13:21:19Z</time>
      </trkpt>
      <trkpt lat="46.42136" lon="-1.6041">
        <ele>58.3</ele>
        <time>2017-12-05T13:21:33Z</time>
      </trkpt>
      <trkpt lat="46.42129" lon="-1.60429">
        <ele>54.4</ele>
        <time>2017-12-05T13:21:49Z</time>
      </trkpt>
      <trkpt lat="46.42113" lon="-1.60413">
        <ele>53.9</ele>
        <time>2017-12-05T13:22:10Z</time>
      </trkpt>
      <trkpt lat="46.42109" lon="-1.60392">
        <ele>56.6</ele>
        <time>2017-12-05T13:22:28Z</time>
      </trkpt>
      <trkpt lat="46.42103" lon="-1.60381">
        <ele>56.4</ele>
        <time>2017-12-05T13:22:39Z</time>
      </trkpt>
      <trkpt lat="46.42098" lon="-1.60371">
        <ele>57.2</ele>
        <time>2017-12-05T13:22:53Z</time>
      </trkpt>
      <trkpt lat="46.42084" lon="-1.60365">
        <ele>59.9</ele>
        <time>2017-12-05T13:23:09Z</time>
      </trkpt>
      <trkpt lat="46.42071" lon="-1.60367">
        <ele>60.8</ele>
        <time>2017-12-05T13:23:24Z</time>
      </trkpt>
      <trkpt lat="46.42046" lon="-1.60364">
        <ele>57.1</ele>
        <time>2017-12-05T13:23:46Z</time>
      </trkpt>
      <trkpt lat="46.4203" lon="-1.60361">
        <ele>62.2</ele>
        <time>2017-12-05T13:24:03Z</time>
      </trkpt>
      <trkpt lat="46.42015" lon="-1.60366">
        <ele>63.1</ele>
        <time>2017-12-05T13:24:18Z</time>
      </trkpt>
      <trkpt lat="46.42009" lon="-1.60385">
        <ele>58.5</ele>
        <time>2017-12-05T13:24:35Z</time>
      </trkpt>
      <trkpt lat="46.42004" lon="-1.60407">
        <ele>63.9</ele>
        <time>2017-12-05T13:24:50Z</time>
      </trkpt>
      <trkpt lat="46.41992" lon="-1.60418">
        <ele>66.9</ele>
        <time>2017-12-05T13:25:04Z</time>
      </trkpt>
      <trkpt lat="46.41976" lon="-1.60423">
        <ele>65</ele>
        <time>2017-12-05T13:25:22Z</time>
      </trkpt>
      <trkpt lat="46.41962" lon="-1.60434">
        <ele>64.7</ele>
        <time>2017-12-05T13:25:39Z</time>
      </trkpt>
      <trkpt lat="46.41953" lon="-1.60462">
        <ele>56.9</ele>
        <time>2017-12-05T13:26:01Z</time>
      </trkpt>
      <trkpt lat="46.41948" lon="-1.60488">
        <ele>56.7</ele>
        <time>2017-12-05T13:26:21Z</time>
      </trkpt>
      <trkpt lat="46.41943" lon="-1.60492">
        <ele>60.4</ele>
        <time>2017-12-05T13:26:28Z</time>
      </trkpt>
      <trkpt lat="46.41936" lon="-1.60495">
        <ele>64.2</ele>
        <time>2017-12-05T13:26:42Z</time>
      </trkpt>
      <trkpt lat="46.41918" lon="-1.60498">
        <ele>70.4</ele>
        <time>2017-12-05T13:27:01Z</time>
      </trkpt>
      <trkpt lat="46.419" lon="-1.60501">
        <ele>63</ele>
        <time>2017-12-05T13:27:19Z</time>
      </trkpt>
      <trkpt lat="46.41881" lon="-1.60506">
        <ele>65.1</ele>
        <time>2017-12-05T13:27:36Z</time>
      </trkpt>
      <trkpt lat="46.4187" lon="-1.60513">
        <ele>62.1</ele>
        <time>2017-12-05T13:27:49Z</time>
      </trkpt>
      <trkpt lat="46.41859" lon="-1.6052">
        <ele>60.4</ele>
        <time>2017-12-05T13:28:07Z</time>
      </trkpt>
      <trkpt lat="46.41844" lon="-1.6053">
        <ele>66.3</ele>
        <time>2017-12-05T13:28:21Z</time>
      </trkpt>
      <trkpt lat="46.41828" lon="-1.6054">
        <ele>62.6</ele>
        <time>2017-12-05T13:28:37Z</time>
      </trkpt>
      <trkpt lat="46.41816" lon="-1.60554">
        <ele>62.1</ele>
        <time>2017-12-05T13:28:56Z</time>
      </trkpt>
      <trkpt lat="46.41801" lon="-1.60574">
        <ele>65.5</ele>
        <time>2017-12-05T13:29:14Z</time>
      </trkpt>
      <trkpt lat="46.41787" lon="-1.60581">
        <ele>67</ele>
        <time>2017-12-05T13:29:25Z</time>
      </trkpt>
      <trkpt lat="46.41787" lon="-1.60581">
        <ele>67</ele>
        <time>2017-12-05T13:29:30Z</time>
      </trkpt>
      <trkpt lat="46.41775" lon="-1.60586">
        <ele>64.3</ele>
        <time>2017-12-05T13:29:38Z</time>
      </trkpt>
      <trkpt lat="46.41763" lon="-1.60589">
        <ele>64.1</ele>
        <time>2017-12-05T13:29:50Z</time>
      </trkpt>
      <trkpt lat="46.41747" lon="-1.60592">
        <ele>61.3</ele>
        <time>2017-12-05T13:30:07Z</time>
      </trkpt>
      <trkpt lat="46.41729" lon="-1.606">
        <ele>58.3</ele>
        <time>2017-12-05T13:30:25Z</time>
      </trkpt>
      <trkpt lat="46.41715" lon="-1.60602">
        <ele>64.3</ele>
        <time>2017-12-05T13:30:45Z</time>
      </trkpt>
      <trkpt lat="46.41726" lon="-1.60644">
        <ele>53.3</ele>
        <time>2017-12-05T13:31:27Z</time>
      </trkpt>
      <trkpt lat="46.41737" lon="-1.60668">
        <ele>57.1</ele>
        <time>2017-12-05T13:31:48Z</time>
      </trkpt>
      <trkpt lat="46.41745" lon="-1.60686">
        <ele>52</ele>
        <time>2017-12-05T13:32:01Z</time>
      </trkpt>
      <trkpt lat="46.41748" lon="-1.60707">
        <ele>57.3</ele>
        <time>2017-12-05T13:32:20Z</time>
      </trkpt>
      <trkpt lat="46.41753" lon="-1.60732">
        <ele>54.9</ele>
        <time>2017-12-05T13:32:38Z</time>
      </trkpt>
      <trkpt lat="46.41757" lon="-1.60745">
        <ele>57.3</ele>
        <time>2017-12-05T13:32:48Z</time>
      </trkpt>
      <trkpt lat="46.41762" lon="-1.60769">
        <ele>57.6</ele>
        <time>2017-12-05T13:33:04Z</time>
      </trkpt>
      <trkpt lat="46.41765" lon="-1.6079">
        <ele>64.4</ele>
        <time>2017-12-05T13:33:20Z</time>
      </trkpt>
      <trkpt lat="46.41773" lon="-1.60806">
        <ele>64.4</ele>
        <time>2017-12-05T13:33:32Z</time>
      </trkpt>
      <trkpt lat="46.41773" lon="-1.60806">
        <ele>64.4</ele>
        <time>2017-12-05T13:33:39Z</time>
      </trkpt>
      <trkpt lat="46.41773" lon="-1.60806">
        <ele>64.4</ele>
        <time>2017-12-05T13:33:42Z</time>
      </trkpt>
      <trkpt lat="46.4177" lon="-1.60827">
        <ele>66.8</ele>
        <time>2017-12-05T13:35:13Z</time>
      </trkpt>
      <trkpt lat="46.41755" lon="-1.6084">
        <ele>67</ele>
        <time>2017-12-05T13:35:29Z</time>
      </trkpt>
      <trkpt lat="46.41746" lon="-1.60846">
        <ele>68.3</ele>
        <time>2017-12-05T13:35:42Z</time>
      </trkpt>
      <trkpt lat="46.41742" lon="-1.6085">
        <ele>75.6</ele>
        <time>2017-12-05T13:35:47Z</time>
      </trkpt>
      <trkpt lat="46.41733" lon="-1.60856">
        <ele>76.3</ele>
        <time>2017-12-05T13:36:02Z</time>
      </trkpt>
      <trkpt lat="46.41723" lon="-1.60859">
        <ele>69.6</ele>
        <time>2017-12-05T13:36:14Z</time>
      </trkpt>
      <trkpt lat="46.41717" lon="-1.60903">
        <ele>68.9</ele>
        <time>2017-12-05T13:37:18Z</time>
      </trkpt>
      <trkpt lat="46.41719" lon="-1.60917">
        <ele>68.4</ele>
        <time>2017-12-05T13:37:29Z</time>
      </trkpt>
      <trkpt lat="46.41724" lon="-1.6096">
        <ele>67.7</ele>
        <time>2017-12-05T13:38:18Z</time>
      </trkpt>
      <trkpt lat="46.41729" lon="-1.60988">
        <ele>60.2</ele>
        <time>2017-12-05T13:38:36Z</time>
      </trkpt>
      <trkpt lat="46.4173" lon="-1.61011">
        <ele>64.3</ele>
        <time>2017-12-05T13:38:53Z</time>
      </trkpt>
      <trkpt lat="46.41733" lon="-1.61033">
        <ele>69.7</ele>
        <time>2017-12-05T13:39:09Z</time>
      </trkpt>
      <trkpt lat="46.41737" lon="-1.61078">
        <ele>58.5</ele>
        <time>2017-12-05T13:39:54Z</time>
      </trkpt>
      <trkpt lat="46.41743" lon="-1.61124">
        <ele>66.4</ele>
        <time>2017-12-05T13:41:04Z</time>
      </trkpt>
      <trkpt lat="46.41749" lon="-1.61163">
        <ele>60.9</ele>
        <time>2017-12-05T13:42:12Z</time>
      </trkpt>
      <trkpt lat="46.41751" lon="-1.61178">
        <ele>55.7</ele>
        <time>2017-12-05T13:42:22Z</time>
      </trkpt>
      <trkpt lat="46.41748" lon="-1.61183">
        <ele>53</ele>
        <time>2017-12-05T13:42:31Z</time>
      </trkpt>
      <trkpt lat="46.4173" lon="-1.61202">
        <ele>68.3</ele>
        <time>2017-12-05T13:43:44Z</time>
      </trkpt>
      <trkpt lat="46.41716" lon="-1.61212">
        <ele>61.9</ele>
        <time>2017-12-05T13:44:02Z</time>
      </trkpt>
      <trkpt lat="46.41687" lon="-1.61224">
        <ele>53.4</ele>
        <time>2017-12-05T13:44:37Z</time>
      </trkpt>
      <trkpt lat="46.41671" lon="-1.61229">
        <ele>60</ele>
        <time>2017-12-05T13:44:55Z</time>
      </trkpt>
      <trkpt lat="46.41652" lon="-1.61234">
        <ele>67.9</ele>
        <time>2017-12-05T13:45:12Z</time>
      </trkpt>
      <trkpt lat="46.41643" lon="-1.61233">
        <ele>68</ele>
        <time>2017-12-05T13:45:25Z</time>
      </trkpt>
      <trkpt lat="46.41635" lon="-1.61237">
        <ele>72.8</ele>
        <time>2017-12-05T13:45:36Z</time>
      </trkpt>
      <trkpt lat="46.41625" lon="-1.61242">
        <ele>70.6</ele>
        <time>2017-12-05T13:45:49Z</time>
      </trkpt>
      <trkpt lat="46.41615" lon="-1.61245">
        <ele>63.1</ele>
        <time>2017-12-05T13:46:03Z</time>
      </trkpt>
      <trkpt lat="46.41599" lon="-1.6125">
        <ele>55.8</ele>
        <time>2017-12-05T13:46:20Z</time>
      </trkpt>
      <trkpt lat="46.41582" lon="-1.61259">
        <ele>66</ele>
        <time>2017-12-05T13:46:40Z</time>
      </trkpt>
      <trkpt lat="46.41574" lon="-1.61263">
        <ele>68.2</ele>
        <time>2017-12-05T13:46:51Z</time>
      </trkpt>
      <trkpt lat="46.41545" lon="-1.61273">
        <ele>67.7</ele>
        <time>2017-12-05T13:48:03Z</time>
      </trkpt>
      <trkpt lat="46.41536" lon="-1.61276">
        <ele>73.1</ele>
        <time>2017-12-05T13:48:12Z</time>
      </trkpt>
      <trkpt lat="46.41528" lon="-1.6128">
        <ele>72.1</ele>
        <time>2017-12-05T13:48:28Z</time>
      </trkpt>
      <trkpt lat="46.41515" lon="-1.61286">
        <ele>67.2</ele>
        <time>2017-12-05T13:48:37Z</time>
      </trkpt>
      <trkpt lat="46.41503" lon="-1.6129">
        <ele>60.6</ele>
        <time>2017-12-05T13:48:51Z</time>
      </trkpt>
      <trkpt lat="46.41486" lon="-1.61295">
        <ele>67</ele>
        <time>2017-12-05T13:49:09Z</time>
      </trkpt>
      <trkpt lat="46.41471" lon="-1.61304">
        <ele>68.1</ele>
        <time>2017-12-05T13:49:26Z</time>
      </trkpt>
      <trkpt lat="46.41456" lon="-1.61312">
        <ele>70.2</ele>
        <time>2017-12-05T13:49:42Z</time>
      </trkpt>
      <trkpt lat="46.41443" lon="-1.61324">
        <ele>69.2</ele>
        <time>2017-12-05T13:49:57Z</time>
      </trkpt>
      <trkpt lat="46.41427" lon="-1.61333">
        <ele>66</ele>
        <time>2017-12-05T13:50:12Z</time>
      </trkpt>
      <trkpt lat="46.41409" lon="-1.61339">
        <ele>62.6</ele>
        <time>2017-12-05T13:50:30Z</time>
      </trkpt>
      <trkpt lat="46.41389" lon="-1.61348">
        <ele>62.5</ele>
        <time>2017-12-05T13:50:51Z</time>
      </trkpt>
      <trkpt lat="46.41373" lon="-1.61354">
        <ele>58.9</ele>
        <time>2017-12-05T13:51:07Z</time>
      </trkpt>
      <trkpt lat="46.41356" lon="-1.61361">
        <ele>55.4</ele>
        <time>2017-12-05T13:51:23Z</time>
      </trkpt>
      <trkpt lat="46.41343" lon="-1.61361">
        <ele>55.8</ele>
        <time>2017-12-05T13:51:37Z</time>
      </trkpt>
      <trkpt lat="46.41329" lon="-1.61356">
        <ele>62</ele>
        <time>2017-12-05T13:51:49Z</time>
      </trkpt>
      <trkpt lat="46.41326" lon="-1.61337">
        <ele>54.3</ele>
        <time>2017-12-05T13:52:05Z</time>
      </trkpt>
      <trkpt lat="46.41326" lon="-1.61337">
        <ele>54.3</ele>
        <time>2017-12-05T13:57:26Z</time>
      </trkpt>
      <trkpt lat="46.41329" lon="-1.61382">
        <ele>56.7</ele>
        <time>2017-12-05T13:58:06Z</time>
      </trkpt>
      <trkpt lat="46.4133" lon="-1.61406">
        <ele>55.7</ele>
        <time>2017-12-05T13:58:26Z</time>
      </trkpt>
      <trkpt lat="46.41325" lon="-1.61437">
        <ele>50.5</ele>
        <time>2017-12-05T13:58:46Z</time>
      </trkpt>
      <trkpt lat="46.41323" lon="-1.61465">
        <ele>63.3</ele>
        <time>2017-12-05T13:59:03Z</time>
      </trkpt>
      <trkpt lat="46.41319" lon="-1.61487">
        <ele>60.2</ele>
        <time>2017-12-05T13:59:20Z</time>
      </trkpt>
      <trkpt lat="46.41313" lon="-1.61514">
        <ele>52.3</ele>
        <time>2017-12-05T13:59:41Z</time>
      </trkpt>
      <trkpt lat="46.41314" lon="-1.61541">
        <ele>57.4</ele>
        <time>2017-12-05T13:59:58Z</time>
      </trkpt>
      <trkpt lat="46.41311" lon="-1.61571">
        <ele>57.8</ele>
        <time>2017-12-05T14:00:17Z</time>
      </trkpt>
      <trkpt lat="46.4131" lon="-1.61597">
        <ele>58.5</ele>
        <time>2017-12-05T14:00:34Z</time>
      </trkpt>
      <trkpt lat="46.41311" lon="-1.61617">
        <ele>60.8</ele>
        <time>2017-12-05T14:00:48Z</time>
      </trkpt>
      <trkpt lat="46.41311" lon="-1.61637">
        <ele>52.5</ele>
        <time>2017-12-05T14:01:02Z</time>
      </trkpt>
      <trkpt lat="46.41316" lon="-1.61668">
        <ele>53.7</ele>
        <time>2017-12-05T14:01:26Z</time>
      </trkpt>
      <trkpt lat="46.41322" lon="-1.61693">
        <ele>52.3</ele>
        <time>2017-12-05T14:01:46Z</time>
      </trkpt>
      <trkpt lat="46.41326" lon="-1.61718">
        <ele>57.8</ele>
        <time>2017-12-05T14:02:05Z</time>
      </trkpt>
      <trkpt lat="46.41327" lon="-1.61743">
        <ele>58</ele>
        <time>2017-12-05T14:02:25Z</time>
      </trkpt>
      <trkpt lat="46.41326" lon="-1.61769">
        <ele>57</ele>
        <time>2017-12-05T14:02:44Z</time>
      </trkpt>
      <trkpt lat="46.41327" lon="-1.61798">
        <ele>58.7</ele>
        <time>2017-12-05T14:03:03Z</time>
      </trkpt>
      <trkpt lat="46.41331" lon="-1.61826">
        <ele>61.1</ele>
        <time>2017-12-05T14:03:22Z</time>
      </trkpt>
      <trkpt lat="46.41335" lon="-1.6185">
        <ele>64</ele>
        <time>2017-12-05T14:03:40Z</time>
      </trkpt>
      <trkpt lat="46.4134" lon="-1.6187">
        <ele>68.8</ele>
        <time>2017-12-05T14:03:56Z</time>
      </trkpt>
      <trkpt lat="46.41343" lon="-1.61893">
        <ele>72.8</ele>
        <time>2017-12-05T14:04:13Z</time>
      </trkpt>
      <trkpt lat="46.41349" lon="-1.61906">
        <ele>65.4</ele>
        <time>2017-12-05T14:04:26Z</time>
      </trkpt>
      <trkpt lat="46.41349" lon="-1.61906">
        <ele>65.4</ele>
        <time>2017-12-05T14:04:37Z</time>
      </trkpt>
      <trkpt lat="46.41358" lon="-1.61924">
        <ele>68.6</ele>
        <time>2017-12-05T14:05:08Z</time>
      </trkpt>
      <trkpt lat="46.41371" lon="-1.61945">
        <ele>68</ele>
        <time>2017-12-05T14:05:27Z</time>
      </trkpt>
      <trkpt lat="46.41378" lon="-1.61954">
        <ele>72.7</ele>
        <time>2017-12-05T14:05:37Z</time>
      </trkpt>
      <trkpt lat="46.41381" lon="-1.61959">
        <ele>71.8</ele>
        <time>2017-12-05T14:05:46Z</time>
      </trkpt>
      <trkpt lat="46.41391" lon="-1.61975">
        <ele>65.6</ele>
        <time>2017-12-05T14:06:02Z</time>
      </trkpt>
      <trkpt lat="46.41398" lon="-1.61992">
        <ele>59.8</ele>
        <time>2017-12-05T14:06:18Z</time>
      </trkpt>
      <trkpt lat="46.41402" lon="-1.62011">
        <ele>58.9</ele>
        <time>2017-12-05T14:06:30Z</time>
      </trkpt>
      <trkpt lat="46.41404" lon="-1.62018">
        <ele>56.9</ele>
        <time>2017-12-05T14:06:38Z</time>
      </trkpt>
      <trkpt lat="46.41418" lon="-1.62052">
        <ele>66</ele>
        <time>2017-12-05T14:07:12Z</time>
      </trkpt>
      <trkpt lat="46.41418" lon="-1.62052">
        <ele>66</ele>
        <time>2017-12-05T14:07:17Z</time>
      </trkpt>
      <trkpt lat="46.41418" lon="-1.62052">
        <ele>66</ele>
        <time>2017-12-05T14:07:18Z</time>
      </trkpt>
      <trkpt lat="46.41424" lon="-1.62078">
        <ele>65</ele>
        <time>2017-12-05T14:07:35Z</time>
      </trkpt>
      <trkpt lat="46.41427" lon="-1.62103">
        <ele>67.3</ele>
        <time>2017-12-05T14:07:51Z</time>
      </trkpt>
      <trkpt lat="46.41431" lon="-1.62108">
        <ele>67.2</ele>
        <time>2017-12-05T14:07:57Z</time>
      </trkpt>
      <trkpt lat="46.41433" lon="-1.62121">
        <ele>62.4</ele>
        <time>2017-12-05T14:08:10Z</time>
      </trkpt>
      <trkpt lat="46.41432" lon="-1.62146">
        <ele>62.6</ele>
        <time>2017-12-05T14:08:31Z</time>
      </trkpt>
      <trkpt lat="46.41429" lon="-1.62168">
        <ele>61</ele>
        <time>2017-12-05T14:08:49Z</time>
      </trkpt>
      <trkpt lat="46.41431" lon="-1.62188">
        <ele>56.6</ele>
        <time>2017-12-05T14:09:05Z</time>
      </trkpt>
      <trkpt lat="46.41438" lon="-1.62213">
        <ele>51.5</ele>
        <time>2017-12-05T14:09:25Z</time>
      </trkpt>
      <trkpt lat="46.41437" lon="-1.62238">
        <ele>60.1</ele>
        <time>2017-12-05T14:09:43Z</time>
      </trkpt>
      <trkpt lat="46.41432" lon="-1.62258">
        <ele>53.6</ele>
        <time>2017-12-05T14:10:01Z</time>
      </trkpt>
      <trkpt lat="46.41422" lon="-1.62271">
        <ele>44.1</ele>
        <time>2017-12-05T14:10:15Z</time>
      </trkpt>
      <trkpt lat="46.41422" lon="-1.62271">
        <ele>44.1</ele>
        <time>2017-12-05T14:12:17Z</time>
      </trkpt>
      <trkpt lat="46.41417" lon="-1.62313">
        <ele>50.4</ele>
        <time>2017-12-05T14:12:33Z</time>
      </trkpt>
      <trkpt lat="46.41418" lon="-1.62337">
        <ele>61.7</ele>
        <time>2017-12-05T14:12:48Z</time>
      </trkpt>
      <trkpt lat="46.41418" lon="-1.62354">
        <ele>63.9</ele>
        <time>2017-12-05T14:13:02Z</time>
      </trkpt>
      <trkpt lat="46.41421" lon="-1.62385">
        <ele>62.6</ele>
        <time>2017-12-05T14:13:24Z</time>
      </trkpt>
      <trkpt lat="46.41423" lon="-1.62412">
        <ele>74</ele>
        <time>2017-12-05T14:13:47Z</time>
      </trkpt>
      <trkpt lat="46.41426" lon="-1.62439">
        <ele>69</ele>
        <time>2017-12-05T14:14:07Z</time>
      </trkpt>
      <trkpt lat="46.41434" lon="-1.6246">
        <ele>67.3</ele>
        <time>2017-12-05T14:14:26Z</time>
      </trkpt>
      <trkpt lat="46.41439" lon="-1.62504">
        <ele>67.2</ele>
        <time>2017-12-05T14:15:19Z</time>
      </trkpt>
      <trkpt lat="46.4144" lon="-1.62525">
        <ele>64.4</ele>
        <time>2017-12-05T14:15:35Z</time>
      </trkpt>
      <trkpt lat="46.41445" lon="-1.62558">
        <ele>77.2</ele>
        <time>2017-12-05T14:15:55Z</time>
      </trkpt>
      <trkpt lat="46.41444" lon="-1.62579">
        <ele>65.3</ele>
        <time>2017-12-05T14:16:13Z</time>
      </trkpt>
      <trkpt lat="46.41453" lon="-1.62596">
        <ele>57.6</ele>
        <time>2017-12-05T14:16:28Z</time>
      </trkpt>
      <trkpt lat="46.41464" lon="-1.62612">
        <ele>57</ele>
        <time>2017-12-05T14:16:41Z</time>
      </trkpt>
      <trkpt lat="46.41475" lon="-1.62616">
        <ele>57.2</ele>
        <time>2017-12-05T14:16:54Z</time>
      </trkpt>
      <trkpt lat="46.4149" lon="-1.62619">
        <ele>54.7</ele>
        <time>2017-12-05T14:17:10Z</time>
      </trkpt>
      <trkpt lat="46.41509" lon="-1.62651">
        <ele>58.9</ele>
        <time>2017-12-05T14:17:45Z</time>
      </trkpt>
      <trkpt lat="46.41519" lon="-1.62668">
        <ele>58.8</ele>
        <time>2017-12-05T14:18:05Z</time>
      </trkpt>
      <trkpt lat="46.41551" lon="-1.62667">
        <ele>51.8</ele>
        <time>2017-12-05T14:18:55Z</time>
      </trkpt>
      <trkpt lat="46.41565" lon="-1.62668">
        <ele>59.1</ele>
        <time>2017-12-05T14:19:12Z</time>
      </trkpt>
      <trkpt lat="46.41591" lon="-1.62667">
        <ele>58.9</ele>
        <time>2017-12-05T14:20:01Z</time>
      </trkpt>
      <trkpt lat="46.41621" lon="-1.62674">
        <ele>54.8</ele>
        <time>2017-12-05T14:20:41Z</time>
      </trkpt>
      <trkpt lat="46.41621" lon="-1.62674">
        <ele>54.8</ele>
        <time>2017-12-05T14:20:48Z</time>
      </trkpt>
      <trkpt lat="46.41621" lon="-1.62674">
        <ele>54.8</ele>
        <time>2017-12-05T14:20:49Z</time>
      </trkpt>
      <trkpt lat="46.41636" lon="-1.62675">
        <ele>57.8</ele>
        <time>2017-12-05T14:21:05Z</time>
      </trkpt>
      <trkpt lat="46.41641" lon="-1.62675">
        <ele>58</ele>
        <time>2017-12-05T14:21:11Z</time>
      </trkpt>
      <trkpt lat="46.41643" lon="-1.62674">
        <ele>59</ele>
        <time>2017-12-05T14:21:19Z</time>
      </trkpt>
      <trkpt lat="46.41666" lon="-1.6268">
        <ele>59.1</ele>
        <time>2017-12-05T14:21:45Z</time>
      </trkpt>
      <trkpt lat="46.41685" lon="-1.6269">
        <ele>63.5</ele>
        <time>2017-12-05T14:22:00Z</time>
      </trkpt>
      <trkpt lat="46.41698" lon="-1.62694">
        <ele>57.4</ele>
        <time>2017-12-05T14:22:18Z</time>
      </trkpt>
      <trkpt lat="46.41711" lon="-1.62703">
        <ele>58.6</ele>
        <time>2017-12-05T14:22:30Z</time>
      </trkpt>
      <trkpt lat="46.4173" lon="-1.62694">
        <ele>52.9</ele>
        <time>2017-12-05T14:22:46Z</time>
      </trkpt>
      <trkpt lat="46.41746" lon="-1.62685">
        <ele>58.6</ele>
        <time>2017-12-05T14:23:03Z</time>
      </trkpt>
      <trkpt lat="46.41761" lon="-1.62677">
        <ele>54.1</ele>
        <time>2017-12-05T14:23:20Z</time>
      </trkpt>
      <trkpt lat="46.41779" lon="-1.62677">
        <ele>55</ele>
        <time>2017-12-05T14:23:38Z</time>
      </trkpt>
      <trkpt lat="46.41779" lon="-1.62677">
        <ele>55</ele>
        <time>2017-12-05T14:23:45Z</time>
      </trkpt>
      <trkpt lat="46.41793" lon="-1.62681">
        <ele>55.5</ele>
        <time>2017-12-05T14:23:55Z</time>
      </trkpt>
      <trkpt lat="46.41804" lon="-1.62688">
        <ele>53.6</ele>
        <time>2017-12-05T14:24:11Z</time>
      </trkpt>
      <trkpt lat="46.41819" lon="-1.62689">
        <ele>52.5</ele>
        <time>2017-12-05T14:24:26Z</time>
      </trkpt>
      <trkpt lat="46.41838" lon="-1.62675">
        <ele>53.9</ele>
        <time>2017-12-05T14:24:45Z</time>
      </trkpt>
      <trkpt lat="46.41849" lon="-1.62663">
        <ele>62.3</ele>
        <time>2017-12-05T14:24:59Z</time>
      </trkpt>
      <trkpt lat="46.41853" lon="-1.62656">
        <ele>58.5</ele>
        <time>2017-12-05T14:25:14Z</time>
      </trkpt>
      <trkpt lat="46.41873" lon="-1.62623">
        <ele>59.1</ele>
        <time>2017-12-05T14:25:49Z</time>
      </trkpt>
      <trkpt lat="46.41886" lon="-1.62609">
        <ele>58.3</ele>
        <time>2017-12-05T14:26:05Z</time>
      </trkpt>
      <trkpt lat="46.41899" lon="-1.62595">
        <ele>59.9</ele>
        <time>2017-12-05T14:26:23Z</time>
      </trkpt>
      <trkpt lat="46.41912" lon="-1.62579">
        <ele>58.5</ele>
        <time>2017-12-05T14:26:41Z</time>
      </trkpt>
      <trkpt lat="46.41924" lon="-1.62567">
        <ele>58.4</ele>
        <time>2017-12-05T14:26:57Z</time>
      </trkpt>
      <trkpt lat="46.41934" lon="-1.62557">
        <ele>57.2</ele>
        <time>2017-12-05T14:27:10Z</time>
      </trkpt>
      <trkpt lat="46.41947" lon="-1.62548">
        <ele>60.3</ele>
        <time>2017-12-05T14:27:24Z</time>
      </trkpt>
      <trkpt lat="46.4197" lon="-1.62528">
        <ele>54.5</ele>
        <time>2017-12-05T14:27:54Z</time>
      </trkpt>
      <trkpt lat="46.41981" lon="-1.62521">
        <ele>54.3</ele>
        <time>2017-12-05T14:28:06Z</time>
      </trkpt>
      <trkpt lat="46.41995" lon="-1.62511">
        <ele>54.8</ele>
        <time>2017-12-05T14:28:23Z</time>
      </trkpt>
      <trkpt lat="46.41995" lon="-1.62511">
        <ele>54.8</ele>
        <time>2017-12-05T14:30:42Z</time>
      </trkpt>
      <trkpt lat="46.42019" lon="-1.62487">
        <ele>52.4</ele>
        <time>2017-12-05T14:32:18Z</time>
      </trkpt>
      <trkpt lat="46.42031" lon="-1.62476">
        <ele>49.5</ele>
        <time>2017-12-05T14:32:31Z</time>
      </trkpt>
      <trkpt lat="46.42041" lon="-1.62463">
        <ele>49.3</ele>
        <time>2017-12-05T14:32:45Z</time>
      </trkpt>
      <trkpt lat="46.42053" lon="-1.6245">
        <ele>50.7</ele>
        <time>2017-12-05T14:33:01Z</time>
      </trkpt>
      <trkpt lat="46.42064" lon="-1.62436">
        <ele>60.6</ele>
        <time>2017-12-05T14:33:17Z</time>
      </trkpt>
      <trkpt lat="46.42051" lon="-1.62393">
        <ele>53.4</ele>
        <time>2017-12-05T14:34:02Z</time>
      </trkpt>
      <trkpt lat="46.42045" lon="-1.62379">
        <ele>52.8</ele>
        <time>2017-12-05T14:34:09Z</time>
      </trkpt>
      <trkpt lat="46.42039" lon="-1.62363">
        <ele>57.4</ele>
        <time>2017-12-05T14:34:23Z</time>
      </trkpt>
      <trkpt lat="46.42035" lon="-1.62323">
        <ele>52.8</ele>
        <time>2017-12-05T14:35:13Z</time>
      </trkpt>
      <trkpt lat="46.42033" lon="-1.62304">
        <ele>47.5</ele>
        <time>2017-12-05T14:35:21Z</time>
      </trkpt>
      <trkpt lat="46.42031" lon="-1.62293">
        <ele>46.1</ele>
        <time>2017-12-05T14:35:29Z</time>
      </trkpt>
      <trkpt lat="46.42021" lon="-1.62266">
        <ele>50.9</ele>
        <time>2017-12-05T14:35:51Z</time>
      </trkpt>
      <trkpt lat="46.42019" lon="-1.62238">
        <ele>51.1</ele>
        <time>2017-12-05T14:36:09Z</time>
      </trkpt>
      <trkpt lat="46.42018" lon="-1.62216">
        <ele>52.9</ele>
        <time>2017-12-05T14:36:24Z</time>
      </trkpt>
      <trkpt lat="46.42017" lon="-1.62198">
        <ele>59.5</ele>
        <time>2017-12-05T14:36:37Z</time>
      </trkpt>
      <trkpt lat="46.42015" lon="-1.6218">
        <ele>53.5</ele>
        <time>2017-12-05T14:36:51Z</time>
      </trkpt>
      <trkpt lat="46.4201" lon="-1.6216">
        <ele>56.2</ele>
        <time>2017-12-05T14:37:06Z</time>
      </trkpt>
      <trkpt lat="46.42002" lon="-1.62134">
        <ele>57.1</ele>
        <time>2017-12-05T14:37:29Z</time>
      </trkpt>
      <trkpt lat="46.41984" lon="-1.62092">
        <ele>56.9</ele>
        <time>2017-12-05T14:38:09Z</time>
      </trkpt>
      <trkpt lat="46.41979" lon="-1.6208">
        <ele>56.6</ele>
        <time>2017-12-05T14:38:16Z</time>
      </trkpt>
      <trkpt lat="46.41975" lon="-1.62069">
        <ele>54.3</ele>
        <time>2017-12-05T14:38:28Z</time>
      </trkpt>
      <trkpt lat="46.41968" lon="-1.62053">
        <ele>53.9</ele>
        <time>2017-12-05T14:38:42Z</time>
      </trkpt>
      <trkpt lat="46.41962" lon="-1.62035">
        <ele>58.2</ele>
        <time>2017-12-05T14:38:52Z</time>
      </trkpt>
      <trkpt lat="46.41961" lon="-1.62023">
        <ele>58.9</ele>
        <time>2017-12-05T14:39:01Z</time>
      </trkpt>
      <trkpt lat="46.41962" lon="-1.61996">
        <ele>59.6</ele>
        <time>2017-12-05T14:39:19Z</time>
      </trkpt>
      <trkpt lat="46.41963" lon="-1.61963">
        <ele>58.4</ele>
        <time>2017-12-05T14:39:39Z</time>
      </trkpt>
      <trkpt lat="46.41961" lon="-1.61938">
        <ele>53.2</ele>
        <time>2017-12-05T14:39:56Z</time>
      </trkpt>
      <trkpt lat="46.41959" lon="-1.61907">
        <ele>51.4</ele>
        <time>2017-12-05T14:40:16Z</time>
      </trkpt>
      <trkpt lat="46.41958" lon="-1.61883">
        <ele>54.9</ele>
        <time>2017-12-05T14:40:37Z</time>
      </trkpt>
      <trkpt lat="46.41958" lon="-1.61883">
        <ele>54.9</ele>
        <time>2017-12-05T14:40:44Z</time>
      </trkpt>
      <trkpt lat="46.41958" lon="-1.61883">
        <ele>54.9</ele>
        <time>2017-12-05T14:40:48Z</time>
      </trkpt>
      <trkpt lat="46.4194" lon="-1.61855">
        <ele>64.9</ele>
        <time>2017-12-05T14:45:58Z</time>
      </trkpt>
      <trkpt lat="46.41951" lon="-1.61811">
        <ele>60.8</ele>
        <time>2017-12-05T14:46:48Z</time>
      </trkpt>
      <trkpt lat="46.41955" lon="-1.61762">
        <ele>55.9</ele>
        <time>2017-12-05T14:47:32Z</time>
      </trkpt>
      <trkpt lat="46.4196" lon="-1.61738">
        <ele>55.4</ele>
        <time>2017-12-05T14:47:46Z</time>
      </trkpt>
      <trkpt lat="46.41966" lon="-1.61722">
        <ele>53.8</ele>
        <time>2017-12-05T14:48:05Z</time>
      </trkpt>
      <trkpt lat="46.41968" lon="-1.61709">
        <ele>51.6</ele>
        <time>2017-12-05T14:48:12Z</time>
      </trkpt>
      <trkpt lat="46.41968" lon="-1.61709">
        <ele>51.6</ele>
        <time>2017-12-05T14:48:19Z</time>
      </trkpt>
      <trkpt lat="46.41969" lon="-1.61705">
        <ele>50.6</ele>
        <time>2017-12-05T14:48:21Z</time>
      </trkpt>
      <trkpt lat="46.41974" lon="-1.61665">
        <ele>50.3</ele>
        <time>2017-12-05T14:48:59Z</time>
      </trkpt>
      <trkpt lat="46.41975" lon="-1.6164">
        <ele>49.9</ele>
        <time>2017-12-05T14:49:16Z</time>
      </trkpt>
      <trkpt lat="46.41979" lon="-1.6161">
        <ele>51.7</ele>
        <time>2017-12-05T14:49:35Z</time>
      </trkpt>
      <trkpt lat="46.41979" lon="-1.61592">
        <ele>49.2</ele>
        <time>2017-12-05T14:49:50Z</time>
      </trkpt>
      <trkpt lat="46.41977" lon="-1.61577">
        <ele>50.9</ele>
        <time>2017-12-05T14:49:59Z</time>
      </trkpt>
      <trkpt lat="46.41974" lon="-1.6156">
        <ele>49.5</ele>
        <time>2017-12-05T14:50:12Z</time>
      </trkpt>
      <trkpt lat="46.41977" lon="-1.61541">
        <ele>50.3</ele>
        <time>2017-12-05T14:50:33Z</time>
      </trkpt>
      <trkpt lat="46.41977" lon="-1.61541">
        <ele>50.3</ele>
        <time>2017-12-05T14:52:41Z</time>
      </trkpt>
      <trkpt lat="46.41949" lon="-1.61529">
        <ele>69.2</ele>
        <time>2017-12-05T14:52:55Z</time>
      </trkpt>
      <trkpt lat="46.4192" lon="-1.61535">
        <ele>54.1</ele>
        <time>2017-12-05T14:54:19Z</time>
      </trkpt>
      <trkpt lat="46.4192" lon="-1.61535">
        <ele>54.1</ele>
        <time>2017-12-05T14:54:28Z</time>
      </trkpt>
      <trkpt lat="46.41915" lon="-1.61538">
        <ele>54.5</ele>
        <time>2017-12-05T14:54:29Z</time>
      </trkpt>
      <trkpt lat="46.41886" lon="-1.61549">
        <ele>57.6</ele>
        <time>2017-12-05T14:55:04Z</time>
      </trkpt>
      <trkpt lat="46.41883" lon="-1.6155">
        <ele>59.7</ele>
        <time>2017-12-05T14:55:08Z</time>
      </trkpt>
      <trkpt lat="46.41877" lon="-1.61554">
        <ele>63.7</ele>
        <time>2017-12-05T14:55:21Z</time>
      </trkpt>
      <trkpt lat="46.41864" lon="-1.6155">
        <ele>68.1</ele>
        <time>2017-12-05T14:55:34Z</time>
      </trkpt>
      <trkpt lat="46.41863" lon="-1.6155">
        <ele>69.2</ele>
        <time>2017-12-05T14:55:43Z</time>
      </trkpt>
      <trkpt lat="46.41835" lon="-1.61561">
        <ele>67.9</ele>
        <time>2017-12-05T14:56:42Z</time>
      </trkpt>
      <trkpt lat="46.41818" lon="-1.61529">
        <ele>63.3</ele>
        <time>2017-12-05T14:57:29Z</time>
      </trkpt>
      <trkpt lat="46.41817" lon="-1.61525">
        <ele>63.4</ele>
        <time>2017-12-05T14:57:33Z</time>
      </trkpt>
      <trkpt lat="46.41817" lon="-1.61522">
        <ele>64.6</ele>
        <time>2017-12-05T14:57:43Z</time>
      </trkpt>
      <trkpt lat="46.41816" lon="-1.61477">
        <ele>57.7</ele>
        <time>2017-12-05T14:58:36Z</time>
      </trkpt>
      <trkpt lat="46.41821" lon="-1.61456">
        <ele>56.4</ele>
        <time>2017-12-05T14:58:49Z</time>
      </trkpt>
      <trkpt lat="46.41823" lon="-1.6144">
        <ele>59.6</ele>
        <time>2017-12-05T14:59:01Z</time>
      </trkpt>
      <trkpt lat="46.41825" lon="-1.61412">
        <ele>59.9</ele>
        <time>2017-12-05T14:59:23Z</time>
      </trkpt>
      <trkpt lat="46.41825" lon="-1.61412">
        <ele>59.9</ele>
        <time>2017-12-05T14:59:30Z</time>
      </trkpt>
      <trkpt lat="46.41825" lon="-1.61412">
        <ele>59.9</ele>
        <time>2017-12-05T14:59:31Z</time>
      </trkpt>
      <trkpt lat="46.41832" lon="-1.61387">
        <ele>52.4</ele>
        <time>2017-12-05T14:59:46Z</time>
      </trkpt>
      <trkpt lat="46.4183" lon="-1.6136">
        <ele>56.7</ele>
        <time>2017-12-05T15:00:01Z</time>
      </trkpt>
      <trkpt lat="46.4183" lon="-1.6136">
        <ele>56.7</ele>
        <time>2017-12-05T15:00:08Z</time>
      </trkpt>
      <trkpt lat="46.4183" lon="-1.6136">
        <ele>56.7</ele>
        <time>2017-12-05T15:00:09Z</time>
      </trkpt>
      <trkpt lat="46.41839" lon="-1.61346">
        <ele>58.3</ele>
        <time>2017-12-05T15:00:17Z</time>
      </trkpt>
      <trkpt lat="46.41844" lon="-1.61341">
        <ele>57.5</ele>
        <time>2017-12-05T15:00:28Z</time>
      </trkpt>
      <trkpt lat="46.4187" lon="-1.61332">
        <ele>67.2</ele>
        <time>2017-12-05T15:01:05Z</time>
      </trkpt>
      <trkpt lat="46.41884" lon="-1.61328">
        <ele>65.6</ele>
        <time>2017-12-05T15:01:19Z</time>
      </trkpt>
      <trkpt lat="46.41899" lon="-1.61325">
        <ele>66.6</ele>
        <time>2017-12-05T15:01:33Z</time>
      </trkpt>
      <trkpt lat="46.41908" lon="-1.61323">
        <ele>67.1</ele>
        <time>2017-12-05T15:01:45Z</time>
      </trkpt>
      <trkpt lat="46.41918" lon="-1.6132">
        <ele>65.8</ele>
        <time>2017-12-05T15:01:55Z</time>
      </trkpt>
      <trkpt lat="46.41923" lon="-1.6132">
        <ele>66.6</ele>
        <time>2017-12-05T15:01:58Z</time>
      </trkpt>
      <trkpt lat="46.41929" lon="-1.61318">
        <ele>66.1</ele>
        <time>2017-12-05T15:02:06Z</time>
      </trkpt>
      <trkpt lat="46.41954" lon="-1.6131">
        <ele>67</ele>
        <time>2017-12-05T15:02:32Z</time>
      </trkpt>
      <trkpt lat="46.41965" lon="-1.61308">
        <ele>65.5</ele>
        <time>2017-12-05T15:02:42Z</time>
      </trkpt>
      <trkpt lat="46.41972" lon="-1.61304">
        <ele>64.8</ele>
        <time>2017-12-05T15:02:58Z</time>
      </trkpt>
      <trkpt lat="46.42" lon="-1.61298">
        <ele>65.2</ele>
        <time>2017-12-05T15:04:18Z</time>
      </trkpt>
      <trkpt lat="46.42" lon="-1.61298">
        <ele>65.2</ele>
        <time>2017-12-05T15:04:25Z</time>
      </trkpt>
      <trkpt lat="46.42" lon="-1.61298">
        <ele>65.2</ele>
        <time>2017-12-05T15:04:26Z</time>
      </trkpt>
      <trkpt lat="46.42012" lon="-1.61296">
        <ele>58</ele>
        <time>2017-12-05T15:04:36Z</time>
      </trkpt>
      <trkpt lat="46.42023" lon="-1.61293">
        <ele>57.9</ele>
        <time>2017-12-05T15:04:48Z</time>
      </trkpt>
      <trkpt lat="46.42043" lon="-1.61285">
        <ele>57.1</ele>
        <time>2017-12-05T15:05:05Z</time>
      </trkpt>
      <trkpt lat="46.42064" lon="-1.61278">
        <ele>56.5</ele>
        <time>2017-12-05T15:05:19Z</time>
      </trkpt>
      <trkpt lat="46.42067" lon="-1.61276">
        <ele>55.7</ele>
        <time>2017-12-05T15:05:30Z</time>
      </trkpt>
      <trkpt lat="46.42102" lon="-1.61272">
        <ele>59.4</ele>
        <time>2017-12-05T15:06:40Z</time>
      </trkpt>
      <trkpt lat="46.42123" lon="-1.61268">
        <ele>58</ele>
        <time>2017-12-05T15:06:57Z</time>
      </trkpt>
      <trkpt lat="46.42138" lon="-1.61263">
        <ele>57.2</ele>
        <time>2017-12-05T15:07:10Z</time>
      </trkpt>
      <trkpt lat="46.42158" lon="-1.61258">
        <ele>59.2</ele>
        <time>2017-12-05T15:07:31Z</time>
      </trkpt>
      <trkpt lat="46.42158" lon="-1.61258">
        <ele>59.2</ele>
        <time>2017-12-05T15:07:39Z</time>
      </trkpt>
      <trkpt lat="46.42158" lon="-1.61258">
        <ele>59.2</ele>
        <time>2017-12-05T15:07:40Z</time>
      </trkpt>
      <trkpt lat="46.42183" lon="-1.61255">
        <ele>53.7</ele>
        <time>2017-12-05T15:09:24Z</time>
      </trkpt>
      <trkpt lat="46.42195" lon="-1.61248">
        <ele>49.1</ele>
        <time>2017-12-05T15:09:36Z</time>
      </trkpt>
      <trkpt lat="46.42215" lon="-1.6124">
        <ele>52.8</ele>
        <time>2017-12-05T15:09:52Z</time>
      </trkpt>
      <trkpt lat="46.42225" lon="-1.61222">
        <ele>48.8</ele>
        <time>2017-12-05T15:10:06Z</time>
      </trkpt>
      <trkpt lat="46.42225" lon="-1.61195">
        <ele>48.5</ele>
        <time>2017-12-05T15:10:26Z</time>
      </trkpt>
      <trkpt lat="46.42224" lon="-1.61169">
        <ele>48.6</ele>
        <time>2017-12-05T15:10:43Z</time>
      </trkpt>
      <trkpt lat="46.42228" lon="-1.61139">
        <ele>49.3</ele>
        <time>2017-12-05T15:11:01Z</time>
      </trkpt>
      <trkpt lat="46.42227" lon="-1.61115">
        <ele>50.5</ele>
        <time>2017-12-05T15:11:16Z</time>
      </trkpt>
      <trkpt lat="46.42227" lon="-1.61091">
        <ele>52.6</ele>
        <time>2017-12-05T15:11:32Z</time>
      </trkpt>
      <trkpt lat="46.42228" lon="-1.61065">
        <ele>51.6</ele>
        <time>2017-12-05T15:11:47Z</time>
      </trkpt>
      <trkpt lat="46.42225" lon="-1.61041">
        <ele>52.5</ele>
        <time>2017-12-05T15:12:02Z</time>
      </trkpt>
      <trkpt lat="46.42222" lon="-1.61009">
        <ele>56</ele>
        <time>2017-12-05T15:12:20Z</time>
      </trkpt>
      <trkpt lat="46.42219" lon="-1.60987">
        <ele>51.7</ele>
        <time>2017-12-05T15:12:36Z</time>
      </trkpt>
      <trkpt lat="46.42218" lon="-1.60966">
        <ele>49.4</ele>
        <time>2017-12-05T15:12:50Z</time>
      </trkpt>
      <trkpt lat="46.42215" lon="-1.60945">
        <ele>50.2</ele>
        <time>2017-12-05T15:13:03Z</time>
      </trkpt>
      <trkpt lat="46.42215" lon="-1.60921">
        <ele>49.6</ele>
        <time>2017-12-05T15:13:16Z</time>
      </trkpt>
      <trkpt lat="46.42213" lon="-1.60898">
        <ele>50.3</ele>
        <time>2017-12-05T15:13:31Z</time>
      </trkpt>
      <trkpt lat="46.4221" lon="-1.60875">
        <ele>50.1</ele>
        <time>2017-12-05T15:13:46Z</time>
      </trkpt>
      <trkpt lat="46.42208" lon="-1.60848">
        <ele>52.2</ele>
        <time>2017-12-05T15:14:04Z</time>
      </trkpt>
      <trkpt lat="46.42204" lon="-1.60821">
        <ele>49.1</ele>
        <time>2017-12-05T15:14:21Z</time>
      </trkpt>
      <trkpt lat="46.42201" lon="-1.60798">
        <ele>49.3</ele>
        <time>2017-12-05T15:14:35Z</time>
      </trkpt>
      <trkpt lat="46.42196" lon="-1.60777">
        <ele>47.8</ele>
        <time>2017-12-05T15:14:49Z</time>
      </trkpt>
      <trkpt lat="46.42196" lon="-1.60765">
        <ele>47.7</ele>
        <time>2017-12-05T15:14:58Z</time>
      </trkpt>
      <trkpt lat="46.42189" lon="-1.60735">
        <ele>49.9</ele>
        <time>2017-12-05T15:15:16Z</time>
      </trkpt>
      <trkpt lat="46.42184" lon="-1.60706">
        <ele>49.2</ele>
        <time>2017-12-05T15:15:34Z</time>
      </trkpt>
      <trkpt lat="46.42179" lon="-1.60682">
        <ele>48.7</ele>
        <time>2017-12-05T15:15:50Z</time>
      </trkpt>
      <trkpt lat="46.42172" lon="-1.60655">
        <ele>52.2</ele>
        <time>2017-12-05T15:16:07Z</time>
      </trkpt>
      <trkpt lat="46.42167" lon="-1.60631">
        <ele>52.5</ele>
        <time>2017-12-05T15:16:24Z</time>
      </trkpt>
      <trkpt lat="46.4216" lon="-1.60607">
        <ele>51.3</ele>
        <time>2017-12-05T15:16:41Z</time>
      </trkpt>
      <trkpt lat="46.42155" lon="-1.60582">
        <ele>50.9</ele>
        <time>2017-12-05T15:17:00Z</time>
      </trkpt>
      <trkpt lat="46.42151" lon="-1.6057">
        <ele>53</ele>
        <time>2017-12-05T15:17:09Z</time>
      </trkpt>
      <trkpt lat="46.42149" lon="-1.60561">
        <ele>50.9</ele>
        <time>2017-12-05T15:17:24Z</time>
      </trkpt>
      <trkpt lat="46.42146" lon="-1.60542">
        <ele>51.9</ele>
        <time>2017-12-05T15:17:38Z</time>
      </trkpt>
      <trkpt lat="46.42144" lon="-1.60537">
        <ele>52.8</ele>
        <time>2017-12-05T15:17:42Z</time>
      </trkpt>
      <trkpt lat="46.42143" lon="-1.60532">
        <ele>50.7</ele>
        <time>2017-12-05T15:17:54Z</time>
      </trkpt>
      <trkpt lat="46.42132" lon="-1.60491">
        <ele>53.4</ele>
        <time>2017-12-05T15:18:30Z</time>
      </trkpt>
      <trkpt lat="46.42127" lon="-1.60468">
        <ele>52.8</ele>
        <time>2017-12-05T15:18:49Z</time>
      </trkpt>
      <trkpt lat="46.42126" lon="-1.6044">
        <ele>56.3</ele>
        <time>2017-12-05T15:19:10Z</time>
      </trkpt>
      <trkpt lat="46.42126" lon="-1.6044">
        <ele>56.3</ele>
        <time>2017-12-05T15:19:17Z</time>
      </trkpt>
      <trkpt lat="46.42132" lon="-1.60428">
        <ele>52.1</ele>
        <time>2017-12-05T15:19:23Z</time>
      </trkpt>
      <trkpt lat="46.42138" lon="-1.60409">
        <ele>53.5</ele>
        <time>2017-12-05T15:19:38Z</time>
      </trkpt>
      <trkpt lat="46.4214" lon="-1.60402">
        <ele>54.9</ele>
        <time>2017-12-05T15:19:43Z</time>
      </trkpt>
      <trkpt lat="46.4214" lon="-1.60393">
        <ele>58</ele>
        <time>2017-12-05T15:19:57Z</time>
      </trkpt>
      <trkpt lat="46.42152" lon="-1.60358">
        <ele>53.7</ele>
        <time>2017-12-05T15:20:26Z</time>
      </trkpt>
      <trkpt lat="46.42162" lon="-1.60336">
        <ele>53.2</ele>
        <time>2017-12-05T15:20:44Z</time>
      </trkpt>
      <trkpt lat="46.42175" lon="-1.60316">
        <ele>51.8</ele>
        <time>2017-12-05T15:21:00Z</time>
      </trkpt>
      <trkpt lat="46.42177" lon="-1.60305">
        <ele>52.3</ele>
        <time>2017-12-05T15:21:09Z</time>
      </trkpt>
      <trkpt lat="46.4218" lon="-1.60302">
        <ele>51.8</ele>
        <time>2017-12-05T15:21:19Z</time>
      </trkpt>
      <trkpt lat="46.4218" lon="-1.60302">
        <ele>-1</ele>
        <time>2017-12-05T15:22:29Z</time>
      </trkpt>
      <trkpt lat="46.4218" lon="-1.60302">
        <ele>-1</ele>
        <time>2017-12-05T15:23:10Z</time>
      </trkpt>
    </trkseg>
  </trk>
</gpx>